sensor_id;sensor_type;location;lat;lon;timestamp;P1;durP1;ratioP1;P2;durP2;ratioP2
81930;SDS011;71395;43.488;1.472;2023-07-20T00:01:27;4.20;;;2.40;;
81930;SDS011;71395;43.488;1.472;2023-07-20T00:03:52;5.28;;;2.90;;
81930;SDS011;71395;43.488;1.472;2023-07-20T00:06:22;4.88;;;2.67;;
81930;SDS011;71395;43.488;1.472;2023-07-20T00:08:49;5.40;;;2.90;;
81930;SDS011;71395;43.488;1.472;2023-07-20T00:11:14;4.70;;;2.60;;
81930;SDS011;71395;43.488;1.472;2023-07-20T00:13:40;5.60;;;2.63;;
81930;SDS011;71395;43.488;1.472;2023-07-20T00:16:06;4.22;;;2.85;;
81930;SDS011;71395;43.488;1.472;2023-07-20T00:18:31;5.15;;;2.78;;
81930;SDS011;71395;43.488;1.472;2023-07-20T00:20:57;5.38;;;2.67;;
81930;SDS011;71395;43.488;1.472;2023-07-20T00:23:24;5.25;;;2.92;;
81930;SDS011;71395;43.488;1.472;2023-07-20T00:25:51;4.93;;;2.70;;
81930;SDS011;71395;43.488;1.472;2023-07-20T00:28:16;3.92;;;2.60;;
81930;SDS011;71395;43.488;1.472;2023-07-20T00:30:42;5.80;;;2.83;;
81930;SDS011;71395;43.488;1.472;2023-07-20T00:33:10;4.35;;;2.63;;
81930;SDS011;71395;43.488;1.472;2023-07-20T00:35:37;4.35;;;2.60;;
81930;SDS011;71395;43.488;1.472;2023-07-20T00:38:03;5.75;;;2.75;;
81930;SDS011;71395;43.488;1.472;2023-07-20T00:40:39;4.40;;;2.72;;
81930;SDS011;71395;43.488;1.472;2023-07-20T00:43:05;4.63;;;2.53;;
81930;SDS011;71395;43.488;1.472;2023-07-20T00:45:31;4.90;;;2.90;;
81930;SDS011;71395;43.488;1.472;2023-07-20T00:47:59;4.95;;;2.67;;
81930;SDS011;71395;43.488;1.472;2023-07-20T00:50:26;4.60;;;2.90;;
81930;SDS011;71395;43.488;1.472;2023-07-20T00:52:54;3.90;;;2.33;;
81930;SDS011;71395;43.488;1.472;2023-07-20T00:55:21;4.55;;;2.80;;
81930;SDS011;71395;43.488;1.472;2023-07-20T00:57:48;4.40;;;2.30;;
81930;SDS011;71395;43.488;1.472;2023-07-20T01:00:14;5.85;;;2.90;;
81930;SDS011;71395;43.488;1.472;2023-07-20T01:02:40;5.20;;;2.78;;
81930;SDS011;71395;43.488;1.472;2023-07-20T01:05:06;4.72;;;2.67;;
81930;SDS011;71395;43.488;1.472;2023-07-20T01:07:34;4.75;;;2.75;;
81930;SDS011;71395;43.488;1.472;2023-07-20T01:10:25;4.30;;;2.88;;
81930;SDS011;71395;43.488;1.472;2023-07-20T01:12:58;4.07;;;2.60;;
81930;SDS011;71395;43.488;1.472;2023-07-20T01:15:26;4.22;;;2.58;;
81930;SDS011;71395;43.488;1.472;2023-07-20T01:17:52;4.95;;;2.80;;
81930;SDS011;71395;43.488;1.472;2023-07-20T01:20:18;5.75;;;2.50;;
81930;SDS011;71395;43.488;1.472;2023-07-20T01:23:12;4.15;;;2.75;;
81930;SDS011;71395;43.488;1.472;2023-07-20T01:31:24;4.47;;;2.63;;
81930;SDS011;71395;43.488;1.472;2023-07-20T01:33:54;4.97;;;3.03;;
81930;SDS011;71395;43.488;1.472;2023-07-20T01:36:22;4.78;;;2.70;;
81930;SDS011;71395;43.488;1.472;2023-07-20T01:38:50;4.65;;;2.65;;
81930;SDS011;71395;43.488;1.472;2023-07-20T01:41:17;4.50;;;2.45;;
81930;SDS011;71395;43.488;1.472;2023-07-20T01:43:43;4.95;;;2.83;;
81930;SDS011;71395;43.488;1.472;2023-07-20T01:46:09;5.40;;;3.05;;
81930;SDS011;71395;43.488;1.472;2023-07-20T01:48:34;4.60;;;2.75;;
81930;SDS011;71395;43.488;1.472;2023-07-20T01:51:00;4.60;;;2.83;;
81930;SDS011;71395;43.488;1.472;2023-07-20T01:53:25;5.45;;;3.22;;
81930;SDS011;71395;43.488;1.472;2023-07-20T01:55:54;4.05;;;2.97;;
81930;SDS011;71395;43.488;1.472;2023-07-20T01:58:20;3.95;;;2.92;;
81930;SDS011;71395;43.488;1.472;2023-07-20T02:00:46;4.35;;;3.00;;
81930;SDS011;71395;43.488;1.472;2023-07-20T02:03:11;4.93;;;2.60;;
81930;SDS011;71395;43.488;1.472;2023-07-20T02:05:37;5.63;;;2.67;;
81930;SDS011;71395;43.488;1.472;2023-07-20T02:08:03;5.25;;;2.97;;
81930;SDS011;71395;43.488;1.472;2023-07-20T02:10:31;4.85;;;2.88;;
81930;SDS011;71395;43.488;1.472;2023-07-20T02:12:57;4.72;;;2.80;;
81930;SDS011;71395;43.488;1.472;2023-07-20T02:15:22;5.40;;;2.72;;
81930;SDS011;71395;43.488;1.472;2023-07-20T02:17:48;4.15;;;2.40;;
81930;SDS011;71395;43.488;1.472;2023-07-20T02:20:13;5.65;;;2.95;;
81930;SDS011;71395;43.488;1.472;2023-07-20T02:22:39;3.92;;;2.63;;
81930;SDS011;71395;43.488;1.472;2023-07-20T02:25:05;4.35;;;2.63;;
81930;SDS011;71395;43.488;1.472;2023-07-20T02:27:32;4.75;;;2.90;;
81930;SDS011;71395;43.488;1.472;2023-07-20T02:30:01;4.93;;;2.50;;
81930;SDS011;71395;43.488;1.472;2023-07-20T02:32:28;4.22;;;2.78;;
81930;SDS011;71395;43.488;1.472;2023-07-20T02:34:53;3.95;;;2.45;;
81930;SDS011;71395;43.488;1.472;2023-07-20T02:37:19;4.30;;;2.65;;
81930;SDS011;71395;43.488;1.472;2023-07-20T02:39:44;4.55;;;3.10;;
81930;SDS011;71395;43.488;1.472;2023-07-20T02:42:10;3.95;;;2.80;;
81930;SDS011;71395;43.488;1.472;2023-07-20T02:44:35;4.93;;;2.78;;
81930;SDS011;71395;43.488;1.472;2023-07-20T02:47:01;4.72;;;2.70;;
81930;SDS011;71395;43.488;1.472;2023-07-20T02:49:27;4.88;;;3.13;;
81930;SDS011;71395;43.488;1.472;2023-07-20T02:51:52;4.00;;;2.65;;
81930;SDS011;71395;43.488;1.472;2023-07-20T02:54:18;3.90;;;2.58;;
81930;SDS011;71395;43.488;1.472;2023-07-20T02:56:43;4.65;;;2.65;;
81930;SDS011;71395;43.488;1.472;2023-07-20T02:59:09;4.18;;;2.65;;
81930;SDS011;71395;43.488;1.472;2023-07-20T03:01:35;5.07;;;2.88;;
81930;SDS011;71395;43.488;1.472;2023-07-20T03:04:01;4.20;;;2.83;;
81930;SDS011;71395;43.488;1.472;2023-07-20T03:06:27;3.78;;;2.58;;
81930;SDS011;71395;43.488;1.472;2023-07-20T03:08:53;4.25;;;2.78;;
81930;SDS011;71395;43.488;1.472;2023-07-20T03:11:19;4.57;;;2.92;;
81930;SDS011;71395;43.488;1.472;2023-07-20T03:13:45;4.97;;;2.75;;
81930;SDS011;71395;43.488;1.472;2023-07-20T03:16:12;4.85;;;2.90;;
81930;SDS011;71395;43.488;1.472;2023-07-20T03:18:41;4.57;;;2.58;;
81930;SDS011;71395;43.488;1.472;2023-07-20T03:21:07;4.40;;;2.50;;
81930;SDS011;71395;43.488;1.472;2023-07-20T03:23:36;4.50;;;2.72;;
81930;SDS011;71395;43.488;1.472;2023-07-20T03:26:02;4.40;;;3.00;;
81930;SDS011;71395;43.488;1.472;2023-07-20T03:28:28;4.47;;;2.70;;
81930;SDS011;71395;43.488;1.472;2023-07-20T03:30:54;4.53;;;2.53;;
81930;SDS011;71395;43.488;1.472;2023-07-20T03:33:21;5.13;;;2.70;;
81930;SDS011;71395;43.488;1.472;2023-07-20T03:35:54;4.97;;;2.70;;
81930;SDS011;71395;43.488;1.472;2023-07-20T03:38:19;4.18;;;2.55;;
81930;SDS011;71395;43.488;1.472;2023-07-20T03:40:49;5.80;;;2.95;;
81930;SDS011;71395;43.488;1.472;2023-07-20T03:43:15;5.07;;;2.50;;
81930;SDS011;71395;43.488;1.472;2023-07-20T03:45:41;4.97;;;2.70;;
81930;SDS011;71395;43.488;1.472;2023-07-20T03:48:06;4.45;;;2.65;;
81930;SDS011;71395;43.488;1.472;2023-07-20T03:50:32;3.97;;;2.40;;
81930;SDS011;71395;43.488;1.472;2023-07-20T03:52:58;3.67;;;2.42;;
81930;SDS011;71395;43.488;1.472;2023-07-20T03:55:23;4.72;;;3.17;;
81930;SDS011;71395;43.488;1.472;2023-07-20T03:57:49;4.85;;;3.00;;
81930;SDS011;71395;43.488;1.472;2023-07-20T04:00:16;4.65;;;2.55;;
81930;SDS011;71395;43.488;1.472;2023-07-20T04:02:42;4.20;;;2.65;;
81930;SDS011;71395;43.488;1.472;2023-07-20T04:05:08;4.57;;;2.67;;
81930;SDS011;71395;43.488;1.472;2023-07-20T04:07:33;5.05;;;2.80;;
81930;SDS011;71395;43.488;1.472;2023-07-20T04:09:59;4.63;;;2.53;;
81930;SDS011;71395;43.488;1.472;2023-07-20T04:12:24;3.90;;;2.70;;
81930;SDS011;71395;43.488;1.472;2023-07-20T04:14:50;5.20;;;2.80;;
81930;SDS011;71395;43.488;1.472;2023-07-20T04:17:15;3.83;;;2.60;;
81930;SDS011;71395;43.488;1.472;2023-07-20T04:19:42;4.15;;;2.47;;
81930;SDS011;71395;43.488;1.472;2023-07-20T04:22:07;4.60;;;2.88;;
81930;SDS011;71395;43.488;1.472;2023-07-20T04:24:33;4.93;;;2.88;;
81930;SDS011;71395;43.488;1.472;2023-07-20T04:26:58;4.65;;;3.10;;
81930;SDS011;71395;43.488;1.472;2023-07-20T04:29:24;4.55;;;2.90;;
81930;SDS011;71395;43.488;1.472;2023-07-20T04:31:49;4.63;;;2.67;;
81930;SDS011;71395;43.488;1.472;2023-07-20T04:34:15;4.53;;;2.78;;
81930;SDS011;71395;43.488;1.472;2023-07-20T04:36:40;4.22;;;2.70;;
81930;SDS011;71395;43.488;1.472;2023-07-20T04:39:06;4.25;;;2.58;;
81930;SDS011;71395;43.488;1.472;2023-07-20T04:41:33;4.78;;;2.78;;
81930;SDS011;71395;43.488;1.472;2023-07-20T04:43:59;4.43;;;2.63;;
81930;SDS011;71395;43.488;1.472;2023-07-20T04:46:24;4.97;;;2.90;;
81930;SDS011;71395;43.488;1.472;2023-07-20T04:48:50;5.10;;;2.92;;
81930;SDS011;71395;43.488;1.472;2023-07-20T04:51:15;4.43;;;2.90;;
81930;SDS011;71395;43.488;1.472;2023-07-20T04:53:45;4.20;;;2.63;;
81930;SDS011;71395;43.488;1.472;2023-07-20T04:56:11;5.35;;;2.80;;
81930;SDS011;71395;43.488;1.472;2023-07-20T04:58:37;4.97;;;2.63;;
81930;SDS011;71395;43.488;1.472;2023-07-20T05:01:03;5.68;;;3.30;;
81930;SDS011;71395;43.488;1.472;2023-07-20T05:03:28;4.45;;;2.75;;
81930;SDS011;71395;43.488;1.472;2023-07-20T05:05:54;4.20;;;2.90;;
81930;SDS011;71395;43.488;1.472;2023-07-20T05:08:20;4.00;;;2.67;;
81930;SDS011;71395;43.488;1.472;2023-07-20T05:10:47;5.10;;;3.05;;
81930;SDS011;71395;43.488;1.472;2023-07-20T05:13:13;5.22;;;2.80;;
81930;SDS011;71395;43.488;1.472;2023-07-20T05:15:38;3.88;;;2.60;;
81930;SDS011;71395;43.488;1.472;2023-07-20T05:18:04;4.07;;;2.50;;
81930;SDS011;71395;43.488;1.472;2023-07-20T05:20:30;4.60;;;2.90;;
81930;SDS011;71395;43.488;1.472;2023-07-20T05:22:56;5.15;;;2.95;;
81930;SDS011;71395;43.488;1.472;2023-07-20T05:25:22;4.55;;;3.05;;
81930;SDS011;71395;43.488;1.472;2023-07-20T05:27:48;5.30;;;2.72;;
81930;SDS011;71395;43.488;1.472;2023-07-20T05:30:13;4.15;;;2.63;;
81930;SDS011;71395;43.488;1.472;2023-07-20T05:32:39;4.95;;;3.00;;
81930;SDS011;71395;43.488;1.472;2023-07-20T05:35:05;5.38;;;2.90;;
81930;SDS011;71395;43.488;1.472;2023-07-20T05:37:30;4.28;;;2.80;;
81930;SDS011;71395;43.488;1.472;2023-07-20T05:39:56;4.80;;;2.80;;
81930;SDS011;71395;43.488;1.472;2023-07-20T05:42:22;3.95;;;2.85;;
81930;SDS011;71395;43.488;1.472;2023-07-20T05:44:48;4.88;;;2.60;;
81930;SDS011;71395;43.488;1.472;2023-07-20T05:47:15;5.07;;;2.83;;
81930;SDS011;71395;43.488;1.472;2023-07-20T05:49:40;5.70;;;2.78;;
81930;SDS011;71395;43.488;1.472;2023-07-20T05:52:06;4.18;;;2.65;;
81930;SDS011;71395;43.488;1.472;2023-07-20T05:54:31;3.97;;;2.63;;
81930;SDS011;71395;43.488;1.472;2023-07-20T05:56:57;4.55;;;2.80;;
81930;SDS011;71395;43.488;1.472;2023-07-20T05:59:22;4.47;;;2.72;;
81930;SDS011;71395;43.488;1.472;2023-07-20T06:01:49;4.72;;;3.08;;
81930;SDS011;71395;43.488;1.472;2023-07-20T06:04:15;3.92;;;2.67;;
81930;SDS011;71395;43.488;1.472;2023-07-20T06:06:40;3.72;;;2.50;;
81930;SDS011;71395;43.488;1.472;2023-07-20T06:09:06;4.53;;;2.60;;
81930;SDS011;71395;43.488;1.472;2023-07-20T06:11:36;4.75;;;2.45;;
81930;SDS011;71395;43.488;1.472;2023-07-20T06:14:02;4.30;;;2.60;;
81930;SDS011;71395;43.488;1.472;2023-07-20T06:16:28;3.63;;;2.70;;
81930;SDS011;71395;43.488;1.472;2023-07-20T06:18:53;3.53;;;2.30;;
81930;SDS011;71395;43.488;1.472;2023-07-20T06:21:20;3.70;;;2.80;;
81930;SDS011;71395;43.488;1.472;2023-07-20T06:23:46;4.18;;;2.30;;
81930;SDS011;71395;43.488;1.472;2023-07-20T06:26:11;4.22;;;2.70;;
81930;SDS011;71395;43.488;1.472;2023-07-20T06:28:37;4.38;;;2.50;;
81930;SDS011;71395;43.488;1.472;2023-07-20T06:31:03;4.35;;;2.60;;
81930;SDS011;71395;43.488;1.472;2023-07-20T06:33:29;4.20;;;2.30;;
81930;SDS011;71395;43.488;1.472;2023-07-20T06:35:54;3.75;;;2.35;;
81930;SDS011;71395;43.488;1.472;2023-07-20T06:38:22;4.28;;;2.50;;
81930;SDS011;71395;43.488;1.472;2023-07-20T06:40:48;4.15;;;2.53;;
81930;SDS011;71395;43.488;1.472;2023-07-20T06:43:17;3.95;;;2.60;;
81930;SDS011;71395;43.488;1.472;2023-07-20T06:45:43;4.18;;;2.50;;
81930;SDS011;71395;43.488;1.472;2023-07-20T06:48:08;4.68;;;2.50;;
81930;SDS011;71395;43.488;1.472;2023-07-20T06:50:34;5.18;;;2.45;;
81930;SDS011;71395;43.488;1.472;2023-07-20T06:53:00;6.38;;;2.90;;
81930;SDS011;71395;43.488;1.472;2023-07-20T06:55:29;7.55;;;2.60;;
81930;SDS011;71395;43.488;1.472;2023-07-20T06:57:54;5.78;;;2.97;;
81930;SDS011;71395;43.488;1.472;2023-07-20T07:00:20;7.55;;;2.75;;
81930;SDS011;71395;43.488;1.472;2023-07-20T07:02:46;7.40;;;2.60;;
81930;SDS011;71395;43.488;1.472;2023-07-20T07:05:11;7.22;;;2.85;;
81930;SDS011;71395;43.488;1.472;2023-07-20T07:07:38;8.75;;;2.80;;
81930;SDS011;71395;43.488;1.472;2023-07-20T07:10:04;7.35;;;2.88;;
81930;SDS011;71395;43.488;1.472;2023-07-20T07:12:30;7.25;;;3.00;;
81930;SDS011;71395;43.488;1.472;2023-07-20T07:14:56;8.63;;;2.53;;
81930;SDS011;71395;43.488;1.472;2023-07-20T07:17:21;5.85;;;2.53;;
81930;SDS011;71395;43.488;1.472;2023-07-20T07:19:47;6.60;;;2.55;;
81930;SDS011;71395;43.488;1.472;2023-07-20T07:22:13;8.40;;;3.20;;
81930;SDS011;71395;43.488;1.472;2023-07-20T07:24:39;8.68;;;2.80;;
81930;SDS011;71395;43.488;1.472;2023-07-20T07:27:08;8.05;;;2.80;;
81930;SDS011;71395;43.488;1.472;2023-07-20T07:29:34;7.10;;;2.80;;
81930;SDS011;71395;43.488;1.472;2023-07-20T07:31:59;6.65;;;2.50;;
81930;SDS011;71395;43.488;1.472;2023-07-20T07:34:25;5.40;;;2.80;;
81930;SDS011;71395;43.488;1.472;2023-07-20T07:36:51;4.38;;;1.98;;
81930;SDS011;71395;43.488;1.472;2023-07-20T07:39:16;6.70;;;2.47;;
81930;SDS011;71395;43.488;1.472;2023-07-20T07:41:42;7.25;;;2.50;;
81930;SDS011;71395;43.488;1.472;2023-07-20T07:44:07;6.75;;;2.28;;
81930;SDS011;71395;43.488;1.472;2023-07-20T07:46:33;6.25;;;2.55;;
81930;SDS011;71395;43.488;1.472;2023-07-20T07:48:59;7.30;;;2.17;;
81930;SDS011;71395;43.488;1.472;2023-07-20T07:51:24;6.10;;;2.70;;
81930;SDS011;71395;43.488;1.472;2023-07-20T07:53:52;3.92;;;2.10;;
81930;SDS011;71395;43.488;1.472;2023-07-20T07:56:17;7.60;;;2.65;;
81930;SDS011;71395;43.488;1.472;2023-07-20T07:58:47;5.47;;;2.50;;
81930;SDS011;71395;43.488;1.472;2023-07-20T08:01:13;4.72;;;2.22;;
81930;SDS011;71395;43.488;1.472;2023-07-20T08:03:39;4.22;;;2.22;;
81930;SDS011;71395;43.488;1.472;2023-07-20T08:06:05;3.85;;;2.25;;
81930;SDS011;71395;43.488;1.472;2023-07-20T08:08:31;4.82;;;2.35;;
81930;SDS011;71395;43.488;1.472;2023-07-20T08:10:57;5.95;;;2.05;;
81930;SDS011;71395;43.488;1.472;2023-07-20T08:13:23;4.30;;;2.10;;
81930;SDS011;71395;43.488;1.472;2023-07-20T08:15:49;4.95;;;2.35;;
81930;SDS011;71395;43.488;1.472;2023-07-20T08:18:19;5.53;;;2.45;;
81930;SDS011;71395;43.488;1.472;2023-07-20T08:20:45;5.97;;;2.80;;
81930;SDS011;71395;43.488;1.472;2023-07-20T08:23:11;7.38;;;2.60;;
81930;SDS011;71395;43.488;1.472;2023-07-20T08:25:37;5.32;;;3.08;;
81930;SDS011;71395;43.488;1.472;2023-07-20T08:28:04;6.60;;;2.90;;
81930;SDS011;71395;43.488;1.472;2023-07-20T08:30:39;5.32;;;2.83;;
81930;SDS011;71395;43.488;1.472;2023-07-20T08:33:06;5.90;;;2.70;;
81930;SDS011;71395;43.488;1.472;2023-07-20T08:35:31;6.93;;;2.65;;
81930;SDS011;71395;43.488;1.472;2023-07-20T08:37:57;5.95;;;2.92;;
81930;SDS011;71395;43.488;1.472;2023-07-20T08:40:22;7.53;;;3.08;;
81930;SDS011;71395;43.488;1.472;2023-07-20T08:42:48;4.63;;;2.53;;
81930;SDS011;71395;43.488;1.472;2023-07-20T08:45:14;4.00;;;2.35;;
81930;SDS011;71395;43.488;1.472;2023-07-20T08:47:42;6.10;;;2.80;;
81930;SDS011;71395;43.488;1.472;2023-07-20T08:50:09;5.22;;;2.72;;
81930;SDS011;71395;43.488;1.472;2023-07-20T08:52:36;4.53;;;2.70;;
81930;SDS011;71395;43.488;1.472;2023-07-20T08:55:02;6.82;;;2.40;;
81930;SDS011;71395;43.488;1.472;2023-07-20T08:59:58;6.05;;;2.60;;
81930;SDS011;71395;43.488;1.472;2023-07-20T09:02:25;6.10;;;2.70;;
81930;SDS011;71395;43.488;1.472;2023-07-20T09:04:52;4.70;;;2.70;;
81930;SDS011;71395;43.488;1.472;2023-07-20T09:07:17;8.23;;;2.60;;
81930;SDS011;71395;43.488;1.472;2023-07-20T09:09:45;6.72;;;2.70;;
81930;SDS011;71395;43.488;1.472;2023-07-20T09:12:14;4.60;;;2.40;;
81930;SDS011;71395;43.488;1.472;2023-07-20T09:14:42;6.45;;;2.80;;
81930;SDS011;71395;43.488;1.472;2023-07-20T09:17:10;5.30;;;3.08;;
81930;SDS011;71395;43.488;1.472;2023-07-20T09:19:38;6.10;;;2.67;;
81930;SDS011;71395;43.488;1.472;2023-07-20T09:22:03;5.47;;;2.47;;
81930;SDS011;71395;43.488;1.472;2023-07-20T09:24:31;5.22;;;2.40;;
81930;SDS011;71395;43.488;1.472;2023-07-20T09:26:57;5.40;;;2.50;;
81930;SDS011;71395;43.488;1.472;2023-07-20T09:29:29;5.85;;;2.50;;
81930;SDS011;71395;43.488;1.472;2023-07-20T09:32:01;5.22;;;2.97;;
81930;SDS011;71395;43.488;1.472;2023-07-20T09:34:32;5.88;;;2.75;;
81930;SDS011;71395;43.488;1.472;2023-07-20T09:36:58;8.40;;;3.30;;
81930;SDS011;71395;43.488;1.472;2023-07-20T09:39:24;5.40;;;2.80;;
81930;SDS011;71395;43.488;1.472;2023-07-20T09:41:51;4.95;;;2.60;;
81930;SDS011;71395;43.488;1.472;2023-07-20T09:44:17;6.07;;;2.65;;
81930;SDS011;71395;43.488;1.472;2023-07-20T09:46:46;5.63;;;2.58;;
81930;SDS011;71395;43.488;1.472;2023-07-20T09:49:13;6.38;;;2.50;;
81930;SDS011;71395;43.488;1.472;2023-07-20T09:51:39;4.47;;;2.22;;
81930;SDS011;71395;43.488;1.472;2023-07-20T09:54:07;4.43;;;2.13;;
81930;SDS011;71395;43.488;1.472;2023-07-20T09:56:32;5.88;;;2.50;;
81930;SDS011;71395;43.488;1.472;2023-07-20T09:58:58;4.47;;;2.50;;
81930;SDS011;71395;43.488;1.472;2023-07-20T10:01:24;3.65;;;2.20;;
81930;SDS011;71395;43.488;1.472;2023-07-20T10:03:53;5.28;;;1.98;;
81930;SDS011;71395;43.488;1.472;2023-07-20T10:06:23;5.53;;;2.45;;
81930;SDS011;71395;43.488;1.472;2023-07-20T10:08:52;5.55;;;2.30;;
81930;SDS011;71395;43.488;1.472;2023-07-20T10:11:21;4.28;;;2.20;;
81930;SDS011;71395;43.488;1.472;2023-07-20T10:13:47;3.33;;;1.80;;
81930;SDS011;71395;43.488;1.472;2023-07-20T10:16:22;3.55;;;1.85;;
81930;SDS011;71395;43.488;1.472;2023-07-20T10:18:54;4.60;;;2.10;;
81930;SDS011;71395;43.488;1.472;2023-07-20T10:21:29;3.72;;;2.05;;
81930;SDS011;71395;43.488;1.472;2023-07-20T10:23:55;3.85;;;1.95;;
81930;SDS011;71395;43.488;1.472;2023-07-20T10:26:22;4.35;;;2.20;;
81930;SDS011;71395;43.488;1.472;2023-07-20T10:28:48;4.05;;;2.10;;
81930;SDS011;71395;43.488;1.472;2023-07-20T10:31:14;4.93;;;2.13;;
81930;SDS011;71395;43.488;1.472;2023-07-20T10:33:42;7.30;;;2.10;;
81930;SDS011;71395;43.488;1.472;2023-07-20T10:36:09;4.95;;;2.50;;
81930;SDS011;71395;43.488;1.472;2023-07-20T10:41:21;6.60;;;2.60;;
81930;SDS011;71395;43.488;1.472;2023-07-20T10:43:50;4.82;;;2.22;;
81930;SDS011;71395;43.488;1.472;2023-07-20T10:49:03;4.28;;;2.13;;
81930;SDS011;71395;43.488;1.472;2023-07-20T10:51:30;4.15;;;2.28;;
81930;SDS011;71395;43.488;1.472;2023-07-20T10:54:03;5.78;;;2.28;;
81930;SDS011;71395;43.488;1.472;2023-07-20T10:56:33;3.95;;;2.22;;
81930;SDS011;71395;43.488;1.472;2023-07-20T10:58:59;3.63;;;2.00;;
81930;SDS011;71395;43.488;1.472;2023-07-20T11:01:35;4.13;;;2.38;;
81930;SDS011;71395;43.488;1.472;2023-07-20T11:04:02;4.05;;;1.77;;
81930;SDS011;71395;43.488;1.472;2023-07-20T11:06:33;6.65;;;2.10;;
81930;SDS011;71395;43.488;1.472;2023-07-20T11:11:41;4.22;;;2.40;;
81930;SDS011;71395;43.488;1.472;2023-07-20T11:14:23;3.63;;;1.75;;
81930;SDS011;71395;43.488;1.472;2023-07-20T11:16:50;5.40;;;2.00;;
81930;SDS011;71395;43.488;1.472;2023-07-20T11:19:20;3.75;;;1.80;;
81930;SDS011;71395;43.488;1.472;2023-07-20T11:21:54;5.57;;;2.10;;
81930;SDS011;71395;43.488;1.472;2023-07-20T11:24:20;3.75;;;2.00;;
81930;SDS011;71395;43.488;1.472;2023-07-20T11:29:19;4.32;;;1.80;;
81930;SDS011;71395;43.488;1.472;2023-07-20T11:31:46;4.18;;;1.95;;
81930;SDS011;71395;43.488;1.472;2023-07-20T11:34:16;4.68;;;1.90;;
81930;SDS011;71395;43.488;1.472;2023-07-20T11:36:44;2.80;;;1.70;;
81930;SDS011;71395;43.488;1.472;2023-07-20T11:39:12;5.45;;;1.80;;
81930;SDS011;71395;43.488;1.472;2023-07-20T11:41:43;4.38;;;1.77;;
81930;SDS011;71395;43.488;1.472;2023-07-20T11:44:11;4.50;;;2.00;;
81930;SDS011;71395;43.488;1.472;2023-07-20T11:46:40;4.60;;;1.83;;
81930;SDS011;71395;43.488;1.472;2023-07-20T11:49:07;4.30;;;1.73;;
81930;SDS011;71395;43.488;1.472;2023-07-20T11:51:33;3.08;;;2.05;;
81930;SDS011;71395;43.488;1.472;2023-07-20T11:54:00;2.92;;;1.83;;
81930;SDS011;71395;43.488;1.472;2023-07-20T11:56:27;3.47;;;1.80;;
81930;SDS011;71395;43.488;1.472;2023-07-20T11:58:59;3.65;;;1.73;;
81930;SDS011;71395;43.488;1.472;2023-07-20T12:01:26;3.38;;;1.83;;
81930;SDS011;71395;43.488;1.472;2023-07-20T12:04:00;4.38;;;2.00;;
81930;SDS011;71395;43.488;1.472;2023-07-20T12:06:28;5.18;;;2.00;;
81930;SDS011;71395;43.488;1.472;2023-07-20T12:08:54;2.92;;;1.80;;
81930;SDS011;71395;43.488;1.472;2023-07-20T12:11:34;3.20;;;1.77;;
81930;SDS011;71395;43.488;1.472;2023-07-20T12:14:01;4.60;;;2.22;;
81930;SDS011;71395;43.488;1.472;2023-07-20T12:16:28;3.55;;;1.80;;
81930;SDS011;71395;43.488;1.472;2023-07-20T12:19:02;4.53;;;2.15;;
81930;SDS011;71395;43.488;1.472;2023-07-20T12:21:29;4.60;;;1.90;;
81930;SDS011;71395;43.488;1.472;2023-07-20T12:23:55;4.93;;;1.88;;
81930;SDS011;71395;43.488;1.472;2023-07-20T12:26:23;3.85;;;2.00;;
81930;SDS011;71395;43.488;1.472;2023-07-20T12:28:50;2.50;;;1.65;;
81930;SDS011;71395;43.488;1.472;2023-07-20T12:31:16;2.70;;;1.60;;
81930;SDS011;71395;43.488;1.472;2023-07-20T12:33:42;4.30;;;1.90;;
81930;SDS011;71395;43.488;1.472;2023-07-20T12:36:08;4.18;;;1.92;;
81930;SDS011;71395;43.488;1.472;2023-07-20T12:38:34;5.00;;;2.00;;
81930;SDS011;71395;43.488;1.472;2023-07-20T12:41:01;4.28;;;1.73;;
81930;SDS011;71395;43.488;1.472;2023-07-20T12:43:27;5.20;;;1.75;;
81930;SDS011;71395;43.488;1.472;2023-07-20T12:45:53;3.95;;;1.75;;
81930;SDS011;71395;43.488;1.472;2023-07-20T12:48:21;4.68;;;1.77;;
81930;SDS011;71395;43.488;1.472;2023-07-20T12:50:47;2.97;;;1.80;;
81930;SDS011;71395;43.488;1.472;2023-07-20T12:53:14;3.63;;;1.60;;
81930;SDS011;71395;43.488;1.472;2023-07-20T12:55:40;3.50;;;2.10;;
81930;SDS011;71395;43.488;1.472;2023-07-20T12:58:09;3.55;;;1.70;;
81930;SDS011;71395;43.488;1.472;2023-07-20T13:00:35;3.63;;;1.83;;
81930;SDS011;71395;43.488;1.472;2023-07-20T13:03:01;4.60;;;1.60;;
81930;SDS011;71395;43.488;1.472;2023-07-20T13:05:32;3.22;;;1.80;;
81930;SDS011;71395;43.488;1.472;2023-07-20T13:07:58;2.88;;;1.73;;
81930;SDS011;71395;43.488;1.472;2023-07-20T13:10:23;3.00;;;1.63;;
81930;SDS011;71395;43.488;1.472;2023-07-20T13:12:49;2.90;;;1.60;;
81930;SDS011;71395;43.488;1.472;2023-07-20T13:15:15;3.65;;;1.70;;
81930;SDS011;71395;43.488;1.472;2023-07-20T13:17:41;2.95;;;1.30;;
81930;SDS011;71395;43.488;1.472;2023-07-20T13:20:07;2.35;;;1.40;;
81930;SDS011;71395;43.488;1.472;2023-07-20T13:22:35;2.55;;;1.50;;
81930;SDS011;71395;43.488;1.472;2023-07-20T13:25:04;3.53;;;1.60;;
81930;SDS011;71395;43.488;1.472;2023-07-20T13:27:31;2.80;;;1.58;;
81930;SDS011;71395;43.488;1.472;2023-07-20T13:29:57;2.40;;;1.50;;
81930;SDS011;71395;43.488;1.472;2023-07-20T13:32:23;2.92;;;1.50;;
81930;SDS011;71395;43.488;1.472;2023-07-20T13:34:49;3.13;;;1.58;;
81930;SDS011;71395;43.488;1.472;2023-07-20T13:37:14;3.03;;;1.60;;
81930;SDS011;71395;43.488;1.472;2023-07-20T13:39:41;3.50;;;1.48;;
81930;SDS011;71395;43.488;1.472;2023-07-20T13:42:07;2.75;;;1.55;;
81930;SDS011;71395;43.488;1.472;2023-07-20T13:44:35;4.40;;;1.70;;
81930;SDS011;71395;43.488;1.472;2023-07-20T13:47:00;2.60;;;1.40;;
81930;SDS011;71395;43.488;1.472;2023-07-20T13:49:26;2.50;;;1.42;;
81930;SDS011;71395;43.488;1.472;2023-07-20T13:51:52;2.58;;;1.45;;
81930;SDS011;71395;43.488;1.472;2023-07-20T13:54:17;2.80;;;1.50;;
81930;SDS011;71395;43.488;1.472;2023-07-20T13:56:43;2.85;;;1.70;;
81930;SDS011;71395;43.488;1.472;2023-07-20T13:59:08;2.63;;;1.42;;
81930;SDS011;71395;43.488;1.472;2023-07-20T14:01:34;3.33;;;1.42;;
81930;SDS011;71395;43.488;1.472;2023-07-20T14:04:00;2.45;;;1.45;;
81930;SDS011;71395;43.488;1.472;2023-07-20T14:06:29;3.78;;;1.63;;
81930;SDS011;71395;43.488;1.472;2023-07-20T14:08:55;2.58;;;1.50;;
81930;SDS011;71395;43.488;1.472;2023-07-20T14:11:20;2.00;;;1.35;;
81930;SDS011;71395;43.488;1.472;2023-07-20T14:13:46;2.75;;;1.40;;
81930;SDS011;71395;43.488;1.472;2023-07-20T14:16:11;3.67;;;1.20;;
81930;SDS011;71395;43.488;1.472;2023-07-20T14:18:37;4.53;;;1.75;;
81930;SDS011;71395;43.488;1.472;2023-07-20T14:21:03;3.47;;;1.50;;
81930;SDS011;71395;43.488;1.472;2023-07-20T14:23:30;2.25;;;1.27;;
81930;SDS011;71395;43.488;1.472;2023-07-20T14:25:55;2.47;;;1.40;;
81930;SDS011;71395;43.488;1.472;2023-07-20T14:28:21;2.58;;;1.52;;
81930;SDS011;71395;43.488;1.472;2023-07-20T14:30:47;2.50;;;1.55;;
81930;SDS011;71395;43.488;1.472;2023-07-20T14:33:13;3.90;;;1.58;;
81930;SDS011;71395;43.488;1.472;2023-07-20T14:35:39;3.17;;;1.40;;
81930;SDS011;71395;43.488;1.472;2023-07-20T14:38:05;3.00;;;1.42;;
81930;SDS011;71395;43.488;1.472;2023-07-20T14:40:30;3.05;;;1.35;;
81930;SDS011;71395;43.488;1.472;2023-07-20T14:42:56;2.58;;;1.55;;
81930;SDS011;71395;43.488;1.472;2023-07-20T14:45:22;2.90;;;1.40;;
81930;SDS011;71395;43.488;1.472;2023-07-20T14:47:47;2.78;;;1.40;;
81930;SDS011;71395;43.488;1.472;2023-07-20T14:50:18;3.80;;;1.48;;
81930;SDS011;71395;43.488;1.472;2023-07-20T14:52:44;2.65;;;1.75;;
81930;SDS011;71395;43.488;1.472;2023-07-20T14:55:10;2.75;;;1.50;;
81930;SDS011;71395;43.488;1.472;2023-07-20T14:57:36;2.35;;;1.38;;
81930;SDS011;71395;43.488;1.472;2023-07-20T15:00:01;3.83;;;1.50;;
81930;SDS011;71395;43.488;1.472;2023-07-20T15:02:31;3.08;;;1.40;;
81930;SDS011;71395;43.488;1.472;2023-07-20T15:04:57;2.60;;;1.38;;